Time;durP1;ratioP1;P1;durP2;ratioP2;P2;SDS_P1;SDS_P2;PMS_P1;PMS_P2;Temp;Humidity;BMP_temperature;BMP_pressure;BME280_temperature;BME280_humidity;BME280_pressure;Samples;Min_cycle;Max_cycle;Signal;HPM_P1;HPM_P2
2022/08/13 00:04:34;;;;;;;6.13;4.85;;;;;;;;;;5070775;28;20040;-64
2022/08/13 00:07:07;;;;;;;7.45;4.10;;;;;;;;;;5073004;28;20029;-63
2022/08/13 00:09:33;;;;;;;8.98;4.38;;;;;;;;;;5063991;28;20111;-64
2022/08/13 00:14:46;;;;;;;6.68;4.38;;;;;;;;;;5071790;28;20032;-64
2022/08/13 00:17:13;;;;;;;5.25;4.47;;;;;;;;;;5072815;28;20544;-64
2022/08/13 00:19:40;;;;;;;5.97;4.50;;;;;;;;;;5056304;28;20052;-64
2022/08/13 00:22:06;;;;;;;7.10;4.38;;;;;;;;;;5071291;28;20040;-64
2022/08/13 00:24:32;;;;;;;8.20;4.38;;;;;;;;;;5072889;28;20074;-64
2022/08/13 00:26:59;;;;;;;8.10;4.65;;;;;;;;;;5070849;28;20036;-65
2022/08/13 00:29:26;;;;;;;6.22;4.78;;;;;;;;;;5071189;28;20044;-65
2022/08/13 00:31:52;;;;;;;7.40;4.57;;;;;;;;;;5073680;28;20036;-63
2022/08/13 00:34:18;;;;;;;6.88;4.57;;;;;;;;;;5073807;28;20115;-63
2022/08/13 00:36:44;;;;;;;6.32;4.18;;;;;;;;;;5070615;28;20049;-63
2022/08/13 00:39:10;;;;;;;7.95;4.47;;;;;;;;;;5068859;28;20106;-63
2022/08/13 00:41:37;;;;;;;9.02;4.80;;;;;;;;;;5073313;28;20036;-63
2022/08/13 00:44:05;;;;;;;7.20;4.30;;;;;;;;;;5073113;28;20036;-63
2022/08/13 00:46:31;;;;;;;8.20;4.85;;;;;;;;;;5071995;28;20033;-64
2022/08/13 00:48:58;;;;;;;6.95;4.65;;;;;;;;;;5070011;28;20052;-64
2022/08/13 00:51:25;;;;;;;5.53;4.40;;;;;;;;;;5072604;28;20058;-63
2022/08/13 00:53:51;;;;;;;5.43;4.57;;;;;;;;;;5055455;28;20044;-64
2022/08/13 00:56:17;;;;;;;6.40;4.75;;;;;;;;;;5073147;28;20083;-64
2022/08/13 00:58:44;;;;;;;6.57;4.80;;;;;;;;;;5072254;28;20052;-64
2022/08/13 01:01:11;;;;;;;10.65;5.13;;;;;;;;;;5070785;28;20093;-64
2022/08/13 01:03:38;;;;;;;5.25;4.50;;;;;;;;;;5063813;28;20040;-64
2022/08/13 01:06:05;;;;;;;7.03;4.78;;;;;;;;;;5071328;28;20410;-64
2022/08/13 01:08:32;;;;;;;6.05;4.32;;;;;;;;;;5069887;28;20064;-64
2022/08/13 01:11:06;;;;;;;6.47;4.80;;;;;;;;;;5070409;28;20040;-63
2022/08/13 01:13:36;;;;;;;7.78;4.85;;;;;;;;;;5066555;28;20093;-64
2022/08/13 01:16:07;;;;;;;6.53;4.68;;;;;;;;;;5060918;28;20504;-64
2022/08/13 01:18:36;;;;;;;8.90;5.00;;;;;;;;;;5068216;28;20485;-63
2022/08/13 01:21:10;;;;;;;7.70;4.53;;;;;;;;;;5071085;28;20135;-64
2022/08/13 01:23:37;;;;;;;8.43;4.95;;;;;;;;;;5064200;28;20390;-64
2022/08/13 01:26:03;;;;;;;7.22;4.72;;;;;;;;;;5053332;28;20174;-64
2022/08/13 01:28:29;;;;;;;6.43;4.78;;;;;;;;;;5061577;28;20032;-64
2022/08/13 01:30:56;;;;;;;5.50;4.93;;;;;;;;;;5071333;28;20504;-64
2022/08/13 01:33:23;;;;;;;5.40;4.63;;;;;;;;;;5066912;28;20041;-64
2022/08/13 01:35:50;;;;;;;4.75;4.18;;;;;;;;;;5071929;28;20037;-64
2022/08/13 01:38:16;;;;;;;7.45;5.40;;;;;;;;;;5070909;28;20543;-64
2022/08/13 01:40:44;;;;;;;6.28;4.50;;;;;;;;;;5071739;28;20041;-64
2022/08/13 01:43:10;;;;;;;5.95;5.15;;;;;;;;;;5069916;28;20036;-64
2022/08/13 01:45:37;;;;;;;7.10;5.40;;;;;;;;;;5071174;28;20029;-64
2022/08/13 01:50:49;;;;;;;9.00;4.80;;;;;;;;;;5066185;28;20401;-64
2022/08/13 01:53:18;;;;;;;6.15;4.55;;;;;;;;;;5069844;28;20041;-64
2022/08/13 01:55:48;;;;;;;7.32;5.30;;;;;;;;;;5070831;28;20107;-64
2022/08/13 01:58:17;;;;;;;;;;;;;;;;;;5053531;28;20040;-64
2022/08/13 02:00:44;;;;;;;6.80;5.30;;;;;;;;;;5066236;28;20439;-64
2022/08/13 02:03:11;;;;;;;9.38;4.88;;;;;;;;;;5068898;28;20040;-64
2022/08/13 02:05:38;;;;;;;6.95;4.53;;;;;;;;;;5052501;28;20064;-64
2022/08/13 02:08:05;;;;;;;5.57;4.65;;;;;;;;;;5070795;28;20041;-63
2022/08/13 02:10:32;;;;;;;6.57;4.75;;;;;;;;;;5069812;28;20040;-64
2022/08/13 02:12:58;;;;;;;6.45;4.70;;;;;;;;;;5070449;28;21359;-64
2022/08/13 02:15:24;;;;;;;6.28;4.75;;;;;;;;;;5050682;28;20045;-63
2022/08/13 02:17:50;;;;;;;8.85;4.93;;;;;;;;;;5071821;28;20114;-64
2022/08/13 02:20:19;;;;;;;7.38;4.93;;;;;;;;;;5069095;28;20486;-64
2022/08/13 02:22:46;;;;;;;6.53;4.65;;;;;;;;;;5070566;28;20392;-64
2022/08/13 02:25:14;;;;;;;5.75;4.35;;;;;;;;;;5071229;28;20365;-64
2022/08/13 02:27:40;;;;;;;8.35;4.63;;;;;;;;;;5070740;28;20039;-64
2022/08/13 02:30:10;;;;;;;6.15;4.60;;;;;;;;;;5069619;28;20039;-64
2022/08/13 02:32:40;;;;;;;7.10;4.68;;;;;;;;;;5068030;28;20036;-64
2022/08/13 02:35:08;;;;;;;10.32;4.85;;;;;;;;;;5069090;28;20115;-64
2022/08/13 02:37:35;;;;;;;5.95;4.25;;;;;;;;;;5053857;28;20048;-64
2022/08/13 02:40:03;;;;;;;5.85;4.57;;;;;;;;;;5065658;28;20513;-64
2022/08/13 02:42:31;;;;;;;7.80;4.50;;;;;;;;;;5069769;28;20044;-64
2022/08/13 02:44:59;;;;;;;6.43;4.65;;;;;;;;;;5066103;28;20082;-63
2022/08/13 02:47:25;;;;;;;5.47;4.88;;;;;;;;;;5069416;28;20474;-64
2022/08/13 02:49:51;;;;;;;6.80;4.40;;;;;;;;;;5070606;28;20036;-64
2022/08/13 02:52:21;;;;;;;5.65;4.32;;;;;;;;;;5071048;28;20036;-64
2022/08/13 02:54:48;;;;;;;5.82;4.30;;;;;;;;;;5068667;28;20098;-63
2022/08/13 02:57:14;;;;;;;6.30;4.93;;;;;;;;;;5052323;28;20036;-64
2022/08/13 02:59:41;;;;;;;10.25;4.38;;;;;;;;;;5063938;28;20029;-64
2022/08/13 03:02:10;;;;;;;6.53;5.07;;;;;;;;;;5069580;22;20072;-64
2022/08/13 03:04:36;;;;;;;6.55;5.00;;;;;;;;;;5049088;28;20037;-64
2022/08/13 03:07:03;;;;;;;7.35;4.85;;;;;;;;;;5050086;28;20041;-64
2022/08/13 03:09:30;;;;;;;8.80;5.00;;;;;;;;;;5048371;28;20029;-64
2022/08/13 03:11:58;;;;;;;6.95;4.47;;;;;;;;;;5047899;28;20037;-64
2022/08/13 03:14:25;;;;;;;6.82;4.40;;;;;;;;;;5049251;28;20044;-64
2022/08/13 03:16:51;;;;;;;7.10;4.38;;;;;;;;;;5049014;28;20510;-64
2022/08/13 03:19:17;;;;;;;4.72;4.22;;;;;;;;;;5048959;28;20044;-64
2022/08/13 03:21:43;;;;;;;5.35;4.30;;;;;;;;;;5044911;28;20073;-64
2022/08/13 03:24:10;;;;;;;6.57;4.57;;;;;;;;;;5036462;28;20037;-63
2022/08/13 03:26:36;;;;;;;5.88;4.72;;;;;;;;;;5050036;28;20029;-63
2022/08/13 03:29:03;;;;;;;6.55;4.45;;;;;;;;;;5043016;28;20033;-64
2022/08/13 03:31:29;;;;;;;5.28;4.78;;;;;;;;;;5049789;28;20400;-63
2022/08/13 03:33:58;;;;;;;9.93;5.00;;;;;;;;;;5041189;28;20123;-64
2022/08/13 03:36:25;;;;;;;7.47;4.97;;;;;;;;;;5050815;28;20170;-63
2022/08/13 03:38:51;;;;;;;6.47;4.68;;;;;;;;;;5050807;28;20152;-63
2022/08/13 03:41:17;;;;;;;6.50;4.50;;;;;;;;;;5051038;28;20037;-63
2022/08/13 03:43:44;;;;;;;9.02;5.07;;;;;;;;;;5045565;28;20090;-63
2022/08/13 03:46:15;;;;;;;6.32;4.28;;;;;;;;;;5050027;28;20041;-64
2022/08/13 03:48:41;;;;;;;5.20;4.13;;;;;;;;;;5046918;28;20045;-63
2022/08/13 03:51:08;;;;;;;9.15;4.97;;;;;;;;;;5054402;28;20190;-64
2022/08/13 03:53:35;;;;;;;6.93;4.75;;;;;;;;;;5052857;28;20060;-63
2022/08/13 03:56:01;;;;;;;7.88;4.75;;;;;;;;;;5053384;28;20045;-64
2022/08/13 03:58:28;;;;;;;7.47;4.72;;;;;;;;;;5051354;28;20041;-63
2022/08/13 04:00:55;;;;;;;7.25;4.70;;;;;;;;;;5045128;28;20082;-64
2022/08/13 04:03:21;;;;;;;5.20;4.50;;;;;;;;;;5051844;28;20107;-63
2022/08/13 04:05:52;;;;;;;8.60;4.90;;;;;;;;;;5051312;28;20033;-64
2022/08/13 04:08:20;;;;;;;4.93;4.30;;;;;;;;;;5051678;28;20502;-63
2022/08/13 04:10:46;;;;;;;6.93;4.60;;;;;;;;;;5033591;28;20045;-63
2022/08/13 04:13:14;;;;;;;6.07;4.43;;;;;;;;;;5048540;28;20048;-64
2022/08/13 04:15:44;;;;;;;7.68;4.35;;;;;;;;;;5051968;28;20045;-64
2022/08/13 04:18:11;;;;;;;7.15;4.63;;;;;;;;;;5054236;28;20047;-64
2022/08/13 04:20:38;;;;;;;5.82;4.60;;;;;;;;;;5048637;28;20466;-64
2022/08/13 04:23:07;;;;;;;7.00;4.50;;;;;;;;;;5046623;28;20494;-63
2022/08/13 04:25:34;;;;;;;4.70;4.18;;;;;;;;;;5034760;28;20033;-64
2022/08/13 04:28:00;;;;;;;5.72;4.45;;;;;;;;;;5052426;28;20074;-64
2022/08/13 04:30:26;;;;;;;6.00;4.15;;;;;;;;;;5053733;28;20497;-64
2022/08/13 04:32:52;;;;;;;6.00;4.60;;;;;;;;;;5051059;28;20043;-64
2022/08/13 04:35:18;;;;;;;7.15;4.25;;;;;;;;;;5045882;28;20037;-64
2022/08/13 04:37:44;;;;;;;5.65;4.15;;;;;;;;;;5049573;28;20064;-64
2022/08/13 04:40:10;;;;;;;6.85;4.32;;;;;;;;;;5052157;28;20457;-64
2022/08/13 04:42:46;;;;;;;7.65;4.18;;;;;;;;;;5047907;28;20099;-64
2022/08/13 04:45:13;;;;;;;6.68;4.47;;;;;;;;;;5049606;28;20059;-64
2022/08/13 04:47:43;;;;;;;9.38;4.68;;;;;;;;;;5049444;28;20514;-64
2022/08/13 04:50:10;;;;;;;5.68;4.35;;;;;;;;;;5048790;28;20073;-64
2022/08/13 04:52:36;;;;;;;5.85;4.28;;;;;;;;;;5053469;28;20477;-64
2022/08/13 04:55:03;;;;;;;4.93;4.35;;;;;;;;;;5053502;28;20053;-64
2022/08/13 04:57:29;;;;;;;8.60;4.20;;;;;;;;;;5052748;28;20455;-64
2022/08/13 04:59:55;;;;;;;6.90;4.38;;;;;;;;;;5052238;28;20102;-64
2022/08/13 05:02:23;;;;;;;7.82;4.93;;;;;;;;;;5051682;28;20072;-64
2022/08/13 05:04:50;;;;;;;4.85;4.40;;;;;;;;;;5051818;28;20817;-64
2022/08/13 05:07:16;;;;;;;10.07;5.03;;;;;;;;;;5034289;28;20060;-64
2022/08/13 05:09:42;;;;;;;7.30;4.65;;;;;;;;;;5047782;28;20033;-64
2022/08/13 05:12:10;;;;;;;6.70;4.28;;;;;;;;;;5037657;28;20036;-64
2022/08/13 05:14:36;;;;;;;6.80;4.90;;;;;;;;;;5052890;28;20037;-64
2022/08/13 05:17:04;;;;;;;7.13;5.00;;;;;;;;;;5046915;28;20039;-65
2022/08/13 05:19:30;;;;;;;5.65;4.15;;;;;;;;;;5052392;28;20041;-64
2022/08/13 05:21:56;;;;;;;6.35;4.47;;;;;;;;;;5052053;28;20555;-64
2022/08/13 05:24:22;;;;;;;5.75;4.72;;;;;;;;;;5034080;28;20038;-64
2022/08/13 05:26:48;;;;;;;5.13;4.63;;;;;;;;;;5041906;28;20033;-64
2022/08/13 05:29:15;;;;;;;5.38;4.35;;;;;;;;;;5032472;28;20516;-64
2022/08/13 05:31:41;;;;;;;6.72;4.30;;;;;;;;;;5049778;28;20556;-63
2022/08/13 05:34:07;;;;;;;5.55;4.47;;;;;;;;;;5052532;28;20116;-64
2022/08/13 05:36:33;;;;;;;6.25;4.93;;;;;;;;;;5052322;28;20512;-63
2022/08/13 05:38:59;;;;;;;5.65;4.57;;;;;;;;;;5050430;28;20176;-64
2022/08/13 05:41:27;;;;;;;4.32;3.45;;;;;;;;;;5050663;28;20104;-63
2022/08/13 05:43:53;;;;;;;5.47;4.78;;;;;;;;;;5051460;28;20043;-63
2022/08/13 05:46:19;;;;;;;8.27;5.15;;;;;;;;;;5052182;28;20033;-63
2022/08/13 05:48:56;;;;;;;4.80;4.30;;;;;;;;;;5050257;28;20510;-63
2022/08/13 05:51:25;;;;;;;5.85;4.40;;;;;;;;;;5050968;28;20181;-64
2022/08/13 05:53:54;;;;;;;7.00;4.85;;;;;;;;;;5051494;28;20124;-64
2022/08/13 05:56:24;;;;;;;6.50;4.40;;;;;;;;;;5044164;28;20445;-64
2022/08/13 05:58:51;;;;;;;5.38;4.10;;;;;;;;;;5044876;28;20045;-64
2022/08/13 06:04:28;;;;;;;6.43;4.70;;;;;;;;;;5040265;28;20040;-63
2022/08/13 06:06:56;;;;;;;8.18;5.03;;;;;;;;;;5037895;28;20064;-64
2022/08/13 06:09:23;;;;;;;6.30;4.28;;;;;;;;;;5043118;28;20038;-63
2022/08/13 06:11:50;;;;;;;8.15;4.65;;;;;;;;;;5047974;28;20041;-63
2022/08/13 06:14:20;;;;;;;6.38;4.22;;;;;;;;;;5051346;28;20045;-63
2022/08/13 06:16:46;;;;;;;4.72;3.83;;;;;;;;;;5052094;28;20044;-63
2022/08/13 06:19:14;;;;;;;4.95;3.83;;;;;;;;;;5051404;28;20095;-63
2022/08/13 06:21:40;;;;;;;9.13;4.22;;;;;;;;;;5051433;28;20452;-63
2022/08/13 06:24:06;;;;;;;6.25;4.03;;;;;;;;;;5051075;28;20486;-63
2022/08/13 06:26:32;;;;;;;5.07;3.47;;;;;;;;;;5051356;28;20061;-63
2022/08/13 06:29:01;;;;;;;5.97;3.65;;;;;;;;;;5049143;28;20037;-64
2022/08/13 06:31:28;;;;;;;4.68;3.60;;;;;;;;;;5048422;28;20099;-63
2022/08/13 06:33:57;;;;;;;5.40;3.50;;;;;;;;;;5039656;28;20549;-63
2022/08/13 06:36:29;;;;;;;3.65;3.33;;;;;;;;;;5051295;28;20040;-63
2022/08/13 06:38:56;;;;;;;4.72;3.00;;;;;;;;;;5049773;28;20068;-63
2022/08/13 06:41:23;;;;;;;4.38;3.20;;;;;;;;;;5048651;28;20045;-63
2022/08/13 06:43:51;;;;;;;5.85;2.70;;;;;;;;;;5048783;28;20041;-63
2022/08/13 06:46:20;;;;;;;3.53;2.50;;;;;;;;;;5047341;28;20044;-63
2022/08/13 06:48:46;;;;;;;6.00;2.42;;;;;;;;;;5050134;28;20159;-63
2022/08/13 06:51:13;;;;;;;3.70;2.30;;;;;;;;;;5050802;28;20037;-63
2022/08/13 06:53:40;;;;;;;5.20;2.00;;;;;;;;;;5050027;28;20041;-63
2022/08/13 06:56:14;;;;;;;3.47;1.80;;;;;;;;;;5050427;28;20094;-63
2022/08/13 06:58:42;;;;;;;4.68;2.28;;;;;;;;;;5042036;28;20044;-63
2022/08/13 07:01:09;;;;;;;5.13;2.10;;;;;;;;;;5050900;28;20040;-63
2022/08/13 07:03:38;;;;;;;4.30;2.10;;;;;;;;;;5046534;28;20114;-64
2022/08/13 07:06:04;;;;;;;3.25;1.88;;;;;;;;;;5051317;28;20510;-63
2022/08/13 07:08:31;;;;;;;3.35;1.95;;;;;;;;;;5049083;28;20047;-63
2022/08/13 07:13:49;;;;;;;4.75;2.05;;;;;;;;;;5031232;28;20045;-63
2022/08/13 07:16:16;;;;;;;3.53;1.88;;;;;;;;;;5031588;28;20053;-63
2022/08/13 07:18:42;;;;;;;3.97;2.10;;;;;;;;;;5044352;28;20041;-63
2022/08/13 07:21:09;;;;;;;3.67;1.83;;;;;;;;;;5048837;28;20037;-63
2022/08/13 07:23:39;;;;;;;5.85;2.15;;;;;;;;;;5052536;28;20363;-63
2022/08/13 07:26:06;;;;;;;12.25;2.08;;;;;;;;;;5049644;28;20033;-63
2022/08/13 07:28:32;;;;;;;3.13;1.77;;;;;;;;;;5046001;28;20425;-63
2022/08/13 07:30:59;;;;;;;2.83;1.90;;;;;;;;;;5052118;28;20048;-63
2022/08/13 07:33:26;;;;;;;1.70;1.60;;;;;;;;;;5053325;28;20033;-63
2022/08/13 07:35:52;;;;;;;4.13;1.85;;;;;;;;;;5050803;28;20518;-63
2022/08/13 07:38:18;;;;;;;3.70;1.58;;;;;;;;;;5053700;28;20032;-63
2022/08/13 07:40:48;;;;;;;4.82;1.50;;;;;;;;;;5051583;28;20090;-63
2022/08/13 07:43:16;;;;;;;2.85;1.65;;;;;;;;;;5053565;28;20087;-64
2022/08/13 07:45:42;;;;;;;2.47;1.38;;;;;;;;;;5054856;28;20044;-63
2022/08/13 07:48:09;;;;;;;3.05;1.60;;;;;;;;;;5043827;28;20120;-63
2022/08/13 07:50:36;;;;;;;5.07;1.83;;;;;;;;;;5048922;28;20099;-63
2022/08/13 07:53:02;;;;;;;6.43;1.80;;;;;;;;;;5052421;28;20068;-64
2022/08/13 07:55:28;;;;;;;2.10;1.90;;;;;;;;;;5054202;28;20037;-63
2022/08/13 07:57:54;;;;;;;4.57;1.80;;;;;;;;;;5052878;28;20110;-63
2022/08/13 08:00:21;;;;;;;3.05;1.80;;;;;;;;;;5046410;28;20490;-63
2022/08/13 08:02:53;;;;;;;4.90;2.20;;;;;;;;;;5053694;28;20041;-63
2022/08/13 08:05:23;;;;;;;3.78;1.60;;;;;;;;;;5054502;28;20095;-63
2022/08/13 08:07:50;;;;;;;2.33;1.75;;;;;;;;;;5050246;28;20072;-63
2022/08/13 08:10:18;;;;;;;1.85;1.70;;;;;;;;;;5052155;28;20047;-63
2022/08/13 08:12:44;;;;;;;3.00;1.90;;;;;;;;;;5051478;28;20049;-63
2022/08/13 08:15:11;;;;;;;4.47;1.63;;;;;;;;;;5051033;28;20049;-64
2022/08/13 08:17:37;;;;;;;2.33;1.60;;;;;;;;;;5049245;28;20372;-63
2022/08/13 08:20:04;;;;;;;1.83;1.73;;;;;;;;;;5048145;28;20513;-64
2022/08/13 08:22:30;;;;;;;3.80;1.70;;;;;;;;;;5050430;28;20084;-64
2022/08/13 08:24:57;;;;;;;4.13;1.65;;;;;;;;;;5052258;28;20033;-64
2022/08/13 08:27:24;;;;;;;3.30;1.50;;;;;;;;;;5049427;28;20120;-64
2022/08/13 08:29:51;;;;;;;4.75;2.00;;;;;;;;;;5045121;28;20087;-64
2022/08/13 08:32:17;;;;;;;4.38;1.73;;;;;;;;;;5044595;28;20048;-64
2022/08/13 08:34:45;;;;;;;3.55;1.70;;;;;;;;;;5051696;28;20055;-63
2022/08/13 08:42:48;;;;;;;2.58;1.60;;;;;;;;;;5051537;28;20045;-61
2022/08/13 08:45:18;;;;;;;2.22;1.80;;;;;;;;;;5048801;28;20068;-61
2022/08/13 08:47:44;;;;;;;2.13;1.70;;;;;;;;;;5045763;28;20068;-61
2022/08/13 08:50:11;;;;;;;3.03;1.65;;;;;;;;;;5046669;28;20552;-61
2022/08/13 08:55:24;;;;;;;4.60;1.80;;;;;;;;;;5048637;28;20120;-61
2022/08/13 08:57:52;;;;;;;3.13;1.77;;;;;;;;;;5052112;28;20041;-61
2022/08/13 09:00:19;;;;;;;2.13;1.63;;;;;;;;;;5050409;28;20099;-61
2022/08/13 09:02:48;;;;;;;2.03;1.55;;;;;;;;;;5044015;28;20044;-60
2022/08/13 09:05:16;;;;;;;1.98;1.40;;;;;;;;;;5046378;28;20033;-61
2022/08/13 09:07:45;;;;;;;3.55;1.60;;;;;;;;;;5048349;28;20048;-60
2022/08/13 09:10:12;;;;;;;3.05;1.58;;;;;;;;;;5050989;28;20065;-61
2022/08/13 09:12:41;;;;;;;2.60;1.98;;;;;;;;;;5046152;28;20056;-60
2022/08/13 09:15:07;;;;;;;3.97;1.77;;;;;;;;;;5052316;28;20068;-61
2022/08/13 09:17:34;;;;;;;1.55;1.40;;;;;;;;;;5050383;28;20473;-61
2022/08/13 09:20:01;;;;;;;2.17;1.45;;;;;;;;;;5051284;28;20482;-61
2022/08/13 09:22:27;;;;;;;3.08;1.80;;;;;;;;;;5048930;28;20045;-60
2022/08/13 09:24:57;;;;;;;2.30;1.67;;;;;;;;;;5045995;28;20035;-61
2022/08/13 09:27:23;;;;;;;3.92;1.90;;;;;;;;;;5045355;28;20116;-61
2022/08/13 09:29:50;;;;;;;1.80;1.70;;;;;;;;;;5047431;28;20037;-61
2022/08/13 09:32:16;;;;;;;2.45;1.55;;;;;;;;;;5048181;28;20068;-61
2022/08/13 09:34:44;;;;;;;2.13;1.52;;;;;;;;;;5050292;28;20048;-61
2022/08/13 09:37:11;;;;;;;4.10;1.83;;;;;;;;;;5050793;28;20041;-61
2022/08/13 09:40:00;;;;;;;2.67;1.50;;;;;;;;;;5047240;28;20040;-61
2022/08/13 09:42:27;;;;;;;2.30;1.70;;;;;;;;;;5047168;28;20038;-62
2022/08/13 09:44:54;;;;;;;1.83;1.45;;;;;;;;;;5050402;28;20037;-61
2022/08/13 09:47:20;;;;;;;2.30;1.52;;;;;;;;;;5051651;22;20041;-64
2022/08/13 09:49:48;;;;;;;2.90;1.65;;;;;;;;;;5028952;28;20064;-64
2022/08/13 09:52:14;;;;;;;2.78;1.52;;;;;;;;;;5027037;28;20045;-65
2022/08/13 09:54:41;;;;;;;2.35;1.42;;;;;;;;;;5030170;28;20038;-65
2022/08/13 09:57:07;;;;;;;3.55;1.83;;;;;;;;;;5026859;28;20063;-64
2022/08/13 09:59:33;;;;;;;3.63;1.60;;;;;;;;;;5027945;28;20132;-65
2022/08/13 10:02:09;;;;;;;3.17;1.60;;;;;;;;;;5025690;28;20069;-65
2022/08/13 10:04:37;;;;;;;2.85;1.40;;;;;;;;;;5025083;28;20037;-65
2022/08/13 10:07:04;;;;;;;1.83;1.30;;;;;;;;;;5020079;28;20053;-64
2022/08/13 10:09:33;;;;;;;2.65;1.73;;;;;;;;;;5025509;28;20065;-65
2022/08/13 10:12:00;;;;;;;3.20;1.60;;;;;;;;;;5026671;28;20046;-64
2022/08/13 10:14:26;;;;;;;5.63;1.60;;;;;;;;;;5028756;28;20069;-65
2022/08/13 10:16:53;;;;;;;2.58;1.52;;;;;;;;;;5030585;28;20052;-65
2022/08/13 10:19:19;;;;;;;1.60;1.50;;;;;;;;;;5029075;28;20053;-65
2022/08/13 10:21:45;;;;;;;2.55;1.23;;;;;;;;;;5029519;28;20071;-64
2022/08/13 10:24:11;;;;;;;6.63;1.73;;;;;;;;;;5023362;28;20041;-64
2022/08/13 10:26:40;;;;;;;4.13;1.52;;;;;;;;;;5026429;28;20033;-65
2022/08/13 10:29:08;;;;;;;2.70;1.60;;;;;;;;;;5024939;28;20099;-64
2022/08/13 10:31:34;;;;;;;2.22;1.73;;;;;;;;;;5018925;28;20046;-65
2022/08/13 10:34:00;;;;;;;2.20;1.65;;;;;;;;;;5026512;28;20037;-64
2022/08/13 10:36:27;;;;;;;1.45;1.35;;;;;;;;;;5029795;28;20048;-64
2022/08/13 10:38:53;;;;;;;2.80;1.50;;;;;;;;;;5023725;28;20430;-64
2022/08/13 10:41:19;;;;;;;1.73;1.48;;;;;;;;;;5029919;28;20041;-65
2022/08/13 10:43:45;;;;;;;2.17;1.77;;;;;;;;;;5016054;28;20037;-65
2022/08/13 10:46:16;;;;;;;3.20;1.58;;;;;;;;;;5026741;28;20041;-64
2022/08/13 10:48:42;;;;;;;3.42;1.40;;;;;;;;;;5031309;28;20128;-64
2022/08/13 10:51:08;;;;;;;1.63;1.40;;;;;;;;;;5022268;28;20034;-64
2022/08/13 10:56:19;;;;;;;2.42;1.60;;;;;;;;;;5031053;28;20073;-65
2022/08/13 10:58:45;;;;;;;1.98;1.50;;;;;;;;;;5030408;28;20434;-64
2022/08/13 11:01:11;;;;;;;3.25;1.42;;;;;;;;;;5027829;28;20038;-64
2022/08/13 11:03:38;;;;;;;2.58;1.40;;;;;;;;;;5023253;28;20041;-64
2022/08/13 11:06:08;;;;;;;2.00;1.50;;;;;;;;;;5025475;28;20034;-64
2022/08/13 11:08:38;;;;;;;1.95;1.60;;;;;;;;;;5025238;28;20041;-65
2022/08/13 11:11:05;;;;;;;4.10;1.40;;;;;;;;;;5026072;28;20050;-64
2022/08/13 11:13:31;;;;;;;3.28;1.75;;;;;;;;;;5033141;28;20049;-64
2022/08/13 11:15:58;;;;;;;1.40;1.30;;;;;;;;;;5028810;28;20045;-64
2022/08/13 11:18:26;;;;;;;1.85;1.50;;;;;;;;;;5033883;28;20522;-64
2022/08/13 11:21:06;;;;;;;2.75;1.65;;;;;;;;;;5031627;28;20073;-64
2022/08/13 11:23:32;;;;;;;2.33;1.40;;;;;;;;;;5027992;28;20498;-64
2022/08/13 11:25:58;;;;;;;4.90;1.52;;;;;;;;;;5030019;28;20036;-64
2022/08/13 11:28:25;;;;;;;1.95;1.35;;;;;;;;;;5031756;28;20041;-64
2022/08/13 11:30:52;;;;;;;2.65;1.50;;;;;;;;;;5033170;28;20083;-64
2022/08/13 11:33:22;;;;;;;4.82;1.67;;;;;;;;;;5023955;28;20406;-63
2022/08/13 11:35:48;;;;;;;1.40;1.30;;;;;;;;;;5032458;28;20041;-64
2022/08/13 11:38:15;;;;;;;1.50;1.40;;;;;;;;;;5032414;28;20062;-64
2022/08/13 11:40:47;;;;;;;1.80;1.20;;;;;;;;;;5032734;28;20707;-64
2022/08/13 11:43:13;;;;;;;1.40;1.30;;;;;;;;;;5032756;28;20037;-64
2022/08/13 11:45:39;;;;;;;2.80;1.40;;;;;;;;;;5033361;28;20030;-64
2022/08/13 11:48:06;;;;;;;3.30;1.50;;;;;;;;;;5027479;28;20414;-64
2022/08/13 11:50:33;;;;;;;2.85;1.60;;;;;;;;;;5031457;28;20034;-64
2022/08/13 11:52:59;;;;;;;2.88;1.77;;;;;;;;;;5028265;28;20040;-64
2022/08/13 11:55:25;;;;;;;2.95;1.50;;;;;;;;;;5034323;28;20403;-65
2022/08/13 11:58:00;;;;;;;1.58;1.48;;;;;;;;;;5026790;28;20044;-65
2022/08/13 12:00:26;;;;;;;2.05;1.20;;;;;;;;;;5029830;28;20750;-64
2022/08/13 12:02:52;;;;;;;2.72;1.70;;;;;;;;;;5031569;28;20034;-64
2022/08/13 12:05:19;;;;;;;2.33;1.30;;;;;;;;;;5034601;28;20160;-64
2022/08/13 12:07:45;;;;;;;1.67;1.50;;;;;;;;;;5026782;28;20567;-64
2022/08/13 12:10:11;;;;;;;3.83;1.60;;;;;;;;;;5030674;28;20108;-65
2022/08/13 12:12:37;;;;;;;2.05;1.40;;;;;;;;;;5026023;28;20037;-64
2022/08/13 12:15:03;;;;;;;4.30;1.83;;;;;;;;;;5020597;28;20048;-64
2022/08/13 12:17:30;;;;;;;1.98;1.40;;;;;;;;;;5029483;28;20150;-64
2022/08/13 12:19:56;;;;;;;3.22;1.60;;;;;;;;;;5032053;28;20120;-64
2022/08/13 12:22:22;;;;;;;2.45;1.70;;;;;;;;;;5025501;28;20120;-64
2022/08/13 12:24:48;;;;;;;1.92;1.70;;;;;;;;;;5021609;28;20480;-64
2022/08/13 12:27:14;;;;;;;2.97;1.67;;;;;;;;;;5013804;28;20041;-64
2022/08/13 12:29:40;;;;;;;3.05;1.88;;;;;;;;;;5033699;28;20112;-65
2022/08/13 12:32:06;;;;;;;4.72;1.77;;;;;;;;;;5028184;28;20045;-64
2022/08/13 12:34:32;;;;;;;2.75;1.40;;;;;;;;;;5023534;28;20146;-64
2022/08/13 12:36:58;;;;;;;1.50;1.40;;;;;;;;;;5029306;28;20038;-64
2022/08/13 12:39:24;;;;;;;3.15;2.00;;;;;;;;;;5026205;28;20052;-64
2022/08/13 12:41:50;;;;;;;2.83;1.80;;;;;;;;;;5029373;28;20486;-64
2022/08/13 12:44:16;;;;;;;1.75;1.60;;;;;;;;;;5028914;28;20034;-64
2022/08/13 12:46:42;;;;;;;1.70;1.60;;;;;;;;;;5022868;28;20182;-64
2022/08/13 12:49:08;;;;;;;6.32;1.90;;;;;;;;;;5030918;28;20114;-64
2022/08/13 12:51:34;;;;;;;2.20;1.70;;;;;;;;;;5023117;28;20083;-64
2022/08/13 12:54:00;;;;;;;5.82;1.80;;;;;;;;;;5027307;28;20044;-65
2022/08/13 12:56:26;;;;;;;2.20;1.88;;;;;;;;;;5032870;28;20042;-65
2022/08/13 12:58:52;;;;;;;1.95;1.63;;;;;;;;;;5026783;28;20041;-64
2022/08/13 13:01:18;;;;;;;2.47;1.75;;;;;;;;;;5021757;28;20573;-64
2022/08/13 13:03:44;;;;;;;2.05;1.80;;;;;;;;;;5023070;28;20109;-65
2022/08/13 13:06:10;;;;;;;2.45;1.83;;;;;;;;;;5026548;28;20055;-64
2022/08/13 13:08:36;;;;;;;2.00;1.55;;;;;;;;;;5033053;28;20033;-64
2022/08/13 13:11:09;;;;;;;2.80;1.90;;;;;;;;;;5017355;28;20506;-65
2022/08/13 13:13:35;;;;;;;2.63;1.90;;;;;;;;;;5025210;28;20033;-65
2022/08/13 13:16:02;;;;;;;2.10;1.90;;;;;;;;;;5023474;28;20048;-65
2022/08/13 13:18:28;;;;;;;2.35;1.90;;;;;;;;;;5021005;28;20037;-65
2022/08/13 13:20:55;;;;;;;2.53;2.28;;;;;;;;;;5030456;28;20044;-65
2022/08/13 13:23:23;;;;;;;2.75;1.83;;;;;;;;;;5031277;28;20068;-65
2022/08/13 13:25:49;;;;;;;4.45;1.80;;;;;;;;;;5032830;28;20458;-65
2022/08/13 13:28:20;;;;;;;2.08;1.88;;;;;;;;;;5023792;28;20041;-65
2022/08/13 13:30:46;;;;;;;2.65;1.85;;;;;;;;;;5031717;28;20053;-65
2022/08/13 13:33:13;;;;;;;2.63;1.90;;;;;;;;;;5031840;28;20073;-65
2022/08/13 13:35:40;;;;;;;2.85;1.95;;;;;;;;;;5033056;28;20045;-65
2022/08/13 13:38:07;;;;;;;2.45;2.10;;;;;;;;;;5028606;28;20426;-65
2022/08/13 13:40:44;;;;;;;2.17;1.95;;;;;;;;;;5020515;28;20417;-65
2022/08/13 13:43:10;;;;;;;3.60;1.95;;;;;;;;;;5028477;28;20037;-65
2022/08/13 13:45:37;;;;;;;3.28;2.10;;;;;;;;;;5031629;28;20037;-65
2022/08/13 13:48:17;;;;;;;5.15;2.15;;;;;;;;;;5031407;28;20044;-65
2022/08/13 13:50:43;;;;;;;2.20;2.00;;;;;;;;;;5023004;28;20041;-65
2022/08/13 13:53:09;;;;;;;2.67;2.20;;;;;;;;;;5018687;28;20034;-65
2022/08/13 13:55:35;;;;;;;3.45;1.90;;;;;;;;;;5025579;28;20037;-65
2022/08/13 13:58:01;;;;;;;2.40;1.83;;;;;;;;;;5028994;28;20040;-64
2022/08/13 14:00:30;;;;;;;3.40;2.38;;;;;;;;;;5026202;28;20387;-65
2022/08/13 14:02:56;;;;;;;4.03;2.00;;;;;;;;;;5017468;28;20069;-64
2022/08/13 14:05:23;;;;;;;3.42;2.30;;;;;;;;;;5020620;28;20550;-65
2022/08/13 14:07:53;;;;;;;2.65;2.20;;;;;;;;;;5024080;28;20423;-65
2022/08/13 14:10:19;;;;;;;3.90;2.00;;;;;;;;;;5022096;28;20501;-65
2022/08/13 14:12:48;;;;;;;2.95;2.22;;;;;;;;;;5025537;28;20038;-65
2022/08/13 14:15:15;;;;;;;3.00;2.30;;;;;;;;;;5024840;28;20092;-65
2022/08/13 14:17:41;;;;;;;3.78;2.13;;;;;;;;;;5023597;28;20111;-65
2022/08/13 14:20:08;;;;;;;3.33;2.35;;;;;;;;;;5016670;28;20586;-64
2022/08/13 14:22:37;;;;;;;3.03;2.22;;;;;;;;;;5022569;28;20044;-65
2022/08/13 14:25:03;;;;;;;4.03;2.10;;;;;;;;;;5018896;28;20044;-65
2022/08/13 14:27:36;;;;;;;3.97;2.35;;;;;;;;;;5020799;28;20049;-64
2022/08/13 14:30:03;;;;;;;4.07;2.60;;;;;;;;;;5023486;28;20048;-64
2022/08/13 14:32:30;;;;;;;3.55;2.42;;;;;;;;;;5024045;28;20046;-64
2022/08/13 14:34:57;;;;;;;2.30;2.10;;;;;;;;;;5014185;28;20079;-65
2022/08/13 14:37:24;;;;;;;4.72;2.28;;;;;;;;;;5029384;28;20045;-65
2022/08/13 14:39:50;;;;;;;3.28;2.42;;;;;;;;;;5022673;28;20049;-64
2022/08/13 14:42:25;;;;;;;5.32;2.63;;;;;;;;;;5019828;28;20213;-65
2022/08/13 14:45:39;;;;;;;4.38;2.70;;;;;;;;;;5014390;28;20042;-65
2022/08/13 14:47:37;;;;;;;2.90;2.70;;;;;;;;;;5023810;28;20055;-65
2022/08/13 14:50:06;;;;;;;3.60;2.60;;;;;;;;;;5018962;28;20055;-65
2022/08/13 14:52:32;;;;;;;4.85;3.20;;;;;;;;;;5014979;28;20522;-64
2022/08/13 14:55:00;;;;;;;3.72;2.80;;;;;;;;;;5012640;28;20056;-65
2022/08/13 14:57:26;;;;;;;3.15;2.80;;;;;;;;;;5017543;28;20498;-64
2022/08/13 14:59:52;;;;;;;5.38;2.92;;;;;;;;;;5026000;28;20048;-65
2022/08/13 15:02:19;;;;;;;4.95;2.90;;;;;;;;;;5022328;28;20045;-65
2022/08/13 15:04:47;;;;;;;3.95;2.70;;;;;;;;;;5010426;28;20040;-65
2022/08/13 15:07:15;;;;;;;4.53;2.75;;;;;;;;;;5024324;28;20037;-65
2022/08/13 15:09:41;;;;;;;4.78;2.97;;;;;;;;;;5021626;28;20566;-65